Lovelaceville, Kentucky
Current Conditions -  °F | °C
As of 8:53 AM on Saturday 27 Dec 2014 (Local Time) from KPAH Reporting Station
Overcast Overcast  
Wind Chill: 47°   Ceiling: 1700
Heat Index: 49°   Visibility: 10mi
Dew Point: 47°   Wind: 6mph
Humidity: 93%   Direction: NA
Pressure: 30.18"   Gusts: NA
Location:  36.97°N, 88.83°W
Report Text: KPAH 271453Z VRB05KT 10SM OVC017 09/08 A3018 RMK AO2 SLP219 T00940083 53012
Loading
Personal Weather Stations






























Interactive Weather Map New forecast layout! Learn more

10-Day Weather Forecast

Advertisements
Track Severe Weather on mobile